Terminal Aerodrome Forecast
Issued by NWS

Home | Current Version | Previous Version | Text Only | Print | Product List | Glossary On
Versions: 1 2 3 4 5 6 7 8 9 10 11 12 13 14 15 16 17 18 19
000
FTUS42 KTAE 282300
TAFDHN
TAF
KDHN 282320Z 0100/0124 08008KT 4SM -RA OVC008
     FM010600 06007KT 2SM -RA OVC006
     FM011500 07005KT P6SM OVC008
     FM012100 07005KT P6SM OVC010=

USA.gov is the U.S. government's official web portal to all federal, state and local government web resources and services.